Time;durP1;ratioP1;P1;durP2;ratioP2;P2;SDS_P1;SDS_P2;PMS_P1;PMS_P2;Temp;Humidity;BMP_temperature;BMP_pressure;BME280_temperature;BME280_humidity;BME280_pressure;Samples;Min_cycle;Max_cycle;Signal;HPM_P1;HPM_P2
2022/04/22 00:01:12;;;;;;;;;65.50;54.00;;;;;;;;5224750;28;8801;-68
2022/04/22 00:04:03;;;;;;;;;50.20;43.80;;;;;;;;5225831;28;8778;-68
2022/04/22 00:06:34;;;;;;;;;41.00;36.60;;;;;;;;5208211;28;8789;-67
2022/04/22 00:09:05;;;;;;;;;65.40;52.80;;;;;;;;5207738;28;8793;-68
2022/04/22 00:11:36;;;;;;;;;36.50;36.25;;;;;;;;5224760;28;9497;-68
2022/04/22 00:14:07;;;;;;;;;40.75;38.25;;;;;;;;5225251;28;11634;-67
2022/04/22 00:16:37;;;;;;;;;50.00;44.25;;;;;;;;5225674;28;8819;-67
2022/04/22 00:19:09;;;;;;;;;45.00;42.00;;;;;;;;5207757;28;8847;-67
2022/04/22 00:21:43;;;;;;;;;47.40;40.80;;;;;;;;5225774;28;8802;-67
2022/04/22 00:24:17;;;;;;;;;41.80;39.40;;;;;;;;5224249;28;8818;-67
2022/04/22 00:26:48;;;;;;;;;66.40;52.00;;;;;;;;5208105;28;8793;-67
2022/04/22 00:29:19;;;;;;;;;75.75;58.00;;;;;;;;5225217;28;8873;-67
2022/04/22 00:31:50;;;;;;;;;82.60;61.00;;;;;;;;5225474;28;9435;-67
2022/04/22 00:34:21;;;;;;;;;85.75;64.50;;;;;;;;5225116;28;8802;-66
2022/04/22 00:36:54;;;;;;;;;73.40;58.20;;;;;;;;5225809;28;9194;-66
2022/04/22 00:39:25;;;;;;;;;86.80;66.20;;;;;;;;5223928;28;8790;-67
2022/04/22 00:41:57;;;;;;;;;77.60;54.60;;;;;;;;5225383;28;9195;-67
2022/04/22 00:44:28;;;;;;;;;56.80;48.80;;;;;;;;5224052;28;8790;-68
2022/04/22 00:46:58;;;;;;;;;39.75;38.50;;;;;;;;5225271;28;8798;-68
2022/04/22 00:49:29;;;;;;;;;43.25;41.00;;;;;;;;5225555;28;10277;-68
2022/04/22 00:52:02;;;;;;;;;33.80;32.80;;;;;;;;5224271;28;8840;-67
2022/04/22 00:54:33;;;;;;;;;35.00;32.20;;;;;;;;5257558;28;9492;-67
2022/04/22 00:57:05;;;;;;;;;35.00;32.80;;;;;;;;5224026;28;8778;-67
2022/04/22 00:59:54;;;;;;;;;57.20;46.20;;;;;;;;5228163;28;8762;-68
2022/04/22 01:02:25;;;;;;;;;46.20;42.20;;;;;;;;5227759;28;8794;-67
2022/04/22 01:10:35;;;;;;;;;52.40;44.40;;;;;;;;5229436;28;8781;-67
2022/04/22 01:13:25;;;;;;;;;26.40;24.40;;;;;;;;5228814;28;8798;-67
2022/04/22 01:15:56;;;;;;;;;51.40;44.80;;;;;;;;5227860;28;8808;-67
2022/04/22 01:18:27;;;;;;;;;85.40;61.20;;;;;;;;5227965;28;8798;-67
2022/04/22 01:21:00;;;;;;;;;37.00;37.00;;;;;;;;5211343;28;8805;-67
2022/04/22 01:23:49;;;;;;;;;70.20;54.00;;;;;;;;5228154;28;8809;-67
2022/04/22 01:26:21;;;;;;;;;66.40;51.20;;;;;;;;5210787;28;8809;-67
2022/04/22 01:28:53;;;;;;;;;63.00;50.20;;;;;;;;5228707;28;8885;-67
2022/04/22 01:31:24;;;;;;;;;61.75;47.75;;;;;;;;5229075;28;8929;-68
2022/04/22 01:33:55;;;;;;;;;72.20;58.40;;;;;;;;5228708;28;8798;-67
2022/04/22 01:36:27;;;;;;;;;77.20;58.60;;;;;;;;5194149;28;8840;-68
2022/04/22 01:38:58;;;;;;;;;67.40;53.80;;;;;;;;5210819;28;8806;-68
2022/04/22 01:41:30;;;;;;;;;77.80;61.00;;;;;;;;5227280;28;8782;-68
2022/04/22 01:44:01;;;;;;;;;85.20;64.80;;;;;;;;5227613;28;8824;-67
2022/04/22 01:46:52;;;;;;;;;81.20;62.60;;;;;;;;5228231;28;8813;-67
2022/04/22 01:49:24;;;;;;;;;82.00;65.00;;;;;;;;5210564;28;8820;-67
2022/04/22 01:51:55;;;;;;;;;75.80;60.20;;;;;;;;5228406;28;8848;-66
2022/04/22 01:54:26;;;;;;;;;48.00;43.80;;;;;;;;5228384;28;8778;-67
2022/04/22 01:56:57;;;;;;;;;70.60;53.60;;;;;;;;5228232;28;8813;-67
2022/04/22 01:59:28;;;;;;;;;42.80;42.20;;;;;;;;5226944;28;8793;-67
2022/04/22 02:02:00;;;;;;;;;52.00;43.40;;;;;;;;5226547;28;8790;-68
2022/04/22 02:04:31;;;;;;;;;41.75;37.75;;;;;;;;5210315;28;8801;-67
2022/04/22 02:07:02;;;;;;;;;53.40;44.00;;;;;;;;5228414;28;8854;-67
2022/04/22 02:09:33;;;;;;;;;63.00;50.00;;;;;;;;5228152;28;9526;-66
2022/04/22 02:12:23;;;;;;;;;51.60;44.20;;;;;;;;5226568;28;8809;-67
2022/04/22 02:14:54;;;;;;;;;52.00;44.20;;;;;;;;5227765;28;8798;-66
2022/04/22 02:17:26;;;;;;;;;41.40;38.20;;;;;;;;5227964;28;8774;-67
2022/04/22 02:19:57;;;;;;;;;47.20;43.00;;;;;;;;5210159;28;9240;-67
2022/04/22 02:22:28;;;;;;;;;38.40;33.60;;;;;;;;5227065;28;8818;-67
2022/04/22 02:25:00;;;;;;;;;40.80;37.20;;;;;;;;5226604;28;8817;-67
2022/04/22 02:30:20;;;;;;;;;34.60;34.00;;;;;;;;5226467;28;8778;-67
2022/04/22 02:32:51;;;;;;;;;55.75;48.75;;;;;;;;5225891;28;8895;-67
2022/04/22 02:35:23;;;;;;;;;64.40;50.00;;;;;;;;5225992;28;9130;-67
2022/04/22 02:37:54;;;;;;;;;37.20;36.00;;;;;;;;5226192;28;8778;-67
2022/04/22 02:46:23;;;;;;;;;30.00;26.20;;;;;;;;5227537;28;9566;-66
2022/04/22 02:49:00;;;;;;;;;20.00;19.40;;;;;;;;5227372;28;8770;-67
2022/04/22 02:51:31;;;;;;;;;24.00;22.80;;;;;;;;5226064;28;8900;-67
2022/04/22 02:54:02;;;;;;;;;40.50;37.25;;;;;;;;5227229;28;8967;-67
2022/04/22 02:56:33;;;;;;;;;38.20;35.20;;;;;;;;5209637;28;8801;-67
2022/04/22 02:59:05;;;;;;;;;31.40;29.00;;;;;;;;5226391;28;8788;-68
2022/04/22 03:01:36;;;;;;;;;39.00;37.60;;;;;;;;5226971;28;8769;-67
2022/04/22 03:04:09;;;;;;;;;38.00;35.00;;;;;;;;5225773;28;8924;-69
2022/04/22 03:06:40;;;;;;;;;22.40;21.80;;;;;;;;5225263;28;8778;-69
2022/04/22 03:09:11;;;;;;;;;15.40;13.00;;;;;;;;5226611;28;8771;-68
2022/04/22 03:11:42;;;;;;;;;23.60;23.40;;;;;;;;5226675;28;8792;-68
2022/04/22 03:14:13;;;;;;;;;17.80;16.00;;;;;;;;5225689;28;8899;-68
2022/04/22 03:17:03;;;;;;;;;13.00;13.00;;;;;;;;5225524;28;8782;-68
2022/04/22 03:19:34;;;;;;;;;10.20;10.00;;;;;;;;5225424;28;8770;-68
2022/04/22 03:22:06;;;;;;;;;10.20;10.20;;;;;;;;5203595;28;8824;-68
2022/04/22 03:24:37;;;;;;;;;15.00;15.00;;;;;;;;5205846;28;8916;-68
2022/04/22 03:27:11;;;;;;;;;16.80;16.80;;;;;;;;5223932;28;8837;-68
2022/04/22 03:29:42;;;;;;;;;14.00;14.00;;;;;;;;5226600;28;8766;-68
2022/04/22 03:32:14;;;;;;;;;15.60;14.80;;;;;;;;5226321;28;8825;-68
2022/04/22 03:34:45;;;;;;;;;25.40;24.60;;;;;;;;5226438;28;9501;-68
2022/04/22 03:37:17;;;;;;;;;30.00;29.75;;;;;;;;5225212;28;8785;-68
2022/04/22 03:39:48;;;;;;;;;20.00;19.00;;;;;;;;5208011;28;9384;-67
2022/04/22 03:42:19;;;;;;;;;22.20;22.00;;;;;;;;5226411;28;8791;-67
2022/04/22 03:44:50;;;;;;;;;15.80;15.80;;;;;;;;5225628;28;8797;-67
2022/04/22 03:47:21;;;;;;;;;20.00;19.60;;;;;;;;5226191;28;8816;-67
2022/04/22 03:50:10;;;;;;;;;16.20;16.20;;;;;;;;5225164;28;8789;-67
2022/04/22 03:52:41;;;;;;;;;28.80;28.80;;;;;;;;5225814;28;8845;-67
2022/04/22 03:55:12;;;;;;;;;34.80;33.80;;;;;;;;5226062;28;8821;-67
2022/04/22 04:00:33;;;;;;;;;39.20;37.20;;;;;;;;5229499;28;9564;-66
2022/04/22 04:03:04;;;;;;;;;41.60;39.40;;;;;;;;5234912;28;8835;-66
2022/04/22 04:05:36;;;;;;;;;56.00;45.25;;;;;;;;5233213;28;8794;-66
2022/04/22 04:08:10;;;;;;;;;43.60;40.40;;;;;;;;5235899;28;8784;-66
2022/04/22 04:16:21;;;;;;;;;53.20;45.80;;;;;;;;5224968;28;8777;-67
2022/04/22 04:18:52;;;;;;;;;56.40;47.00;;;;;;;;5224455;28;8802;-67
2022/04/22 04:24:14;;;;;;;;;40.20;39.00;;;;;;;;5225420;28;8824;-69
2022/04/22 04:26:45;;;;;;;;;54.00;45.60;;;;;;;;5207505;28;9529;-71
2022/04/22 04:29:16;;;;;;;;;56.60;47.00;;;;;;;;5204621;28;8777;-69
2022/04/22 04:31:47;;;;;;;;;60.25;49.25;;;;;;;;5225049;28;8774;-69
2022/04/22 04:34:18;;;;;;;;;59.75;47.50;;;;;;;;5224802;28;11577;-68
2022/04/22 04:36:49;;;;;;;;;62.50;51.75;;;;;;;;5199511;28;9901;-69
2022/04/22 04:39:40;;;;;;;;;53.80;45.00;;;;;;;;5200303;28;8796;-68
2022/04/22 04:42:12;;;;;;;;;57.60;47.80;;;;;;;;5183668;28;8903;-70
2022/04/22 04:44:44;;;;;;;;;47.00;41.00;;;;;;;;5219211;28;8794;-71
2022/04/22 04:47:15;;;;;;;;;58.40;48.20;;;;;;;;5218235;28;8827;-70
2022/04/22 04:49:46;;;;;;;;;68.20;55.40;;;;;;;;5215539;28;8849;-71
2022/04/22 04:52:17;;;;;;;;;69.00;54.60;;;;;;;;5220300;28;8825;-70
2022/04/22 04:54:50;;;;;;;;;63.25;52.50;;;;;;;;5219181;28;8810;-70
2022/04/22 04:57:21;;;;;;;;;32.40;30.40;;;;;;;;5253023;28;11547;-71
2022/04/22 05:00:11;;;;;;;;;29.40;29.40;;;;;;;;5222171;28;8809;-70
2022/04/22 05:02:41;;;;;;;;;22.40;21.40;;;;;;;;5223123;28;8790;-70
2022/04/22 05:05:31;;;;;;;;;26.00;25.60;;;;;;;;5222381;28;9528;-70
2022/04/22 05:08:02;;;;;;;;;29.20;28.20;;;;;;;;5205089;28;8786;-70
2022/04/22 05:10:36;;;;;;;;;30.80;29.60;;;;;;;;5223260;28;8794;-70
2022/04/22 05:13:08;;;;;;;;;23.00;22.60;;;;;;;;5221976;28;8837;-70
2022/04/22 05:15:43;;;;;;;;;24.20;24.00;;;;;;;;5222176;28;8774;-70
2022/04/22 05:18:14;;;;;;;;;14.60;14.60;;;;;;;;5222482;28;8835;-70
2022/04/22 05:20:47;;;;;;;;;15.60;15.00;;;;;;;;5221899;28;9591;-70
2022/04/22 05:23:18;;;;;;;;;14.00;13.80;;;;;;;;5220558;28;8865;-70
2022/04/22 05:25:49;;;;;;;;;13.60;13.00;;;;;;;;5205150;28;8794;-69
2022/04/22 05:28:20;;;;;;;;;15.00;15.00;;;;;;;;5201144;28;8796;-70
2022/04/22 05:33:40;;;;;;;;;8.40;8.40;;;;;;;;5201610;28;8977;-70
2022/04/22 05:36:11;;;;;;;;;8.00;8.00;;;;;;;;5201012;28;8784;-71
2022/04/22 05:38:42;;;;;;;;;6.80;6.80;;;;;;;;5184876;28;8811;-70
2022/04/22 05:41:14;;;;;;;;;6.00;6.00;;;;;;;;5188136;28;8956;-70
2022/04/22 05:43:45;;;;;;;;;11.80;11.60;;;;;;;;5220798;28;8857;-71
2022/04/22 05:46:17;;;;;;;;;8.00;8.00;;;;;;;;5238537;28;8826;-70
2022/04/22 05:48:48;;;;;;;;;4.60;4.60;;;;;;;;5210840;28;10588;-70
2022/04/22 05:51:19;;;;;;;;;12.80;12.80;;;;;;;;5225664;28;8813;-69
2022/04/22 05:53:50;;;;;;;;;15.40;15.00;;;;;;;;5225359;28;8829;-69
2022/04/22 05:56:21;;;;;;;;;6.00;6.00;;;;;;;;5226753;28;8932;-70
2022/04/22 05:58:52;;;;;;;;;7.80;7.80;;;;;;;;5224806;28;11439;-69
2022/04/22 06:01:23;;;;;;;;;8.00;8.00;;;;;;;;5224859;28;8842;-70
2022/04/22 06:03:54;;;;;;;;;9.25;9.00;;;;;;;;5224842;28;9520;-69
2022/04/22 06:06:25;;;;;;;;;2.00;2.00;;;;;;;;5225311;28;9733;-69
2022/04/22 06:11:45;;;;;;;;;1.00;1.00;;;;;;;;5224366;28;8805;-70
2022/04/22 06:14:16;;;;;;;;;3.60;3.20;;;;;;;;5243516;28;8791;-70
2022/04/22 06:16:47;;;;;;;;;9.00;8.25;;;;;;;;5237788;28;8798;-70
2022/04/22 06:19:18;;;;;;;;;4.40;4.20;;;;;;;;5223226;28;9562;-67
2022/04/22 06:21:49;;;;;;;;;0.00;0.00;;;;;;;;5226391;28;8893;-69
2022/04/22 06:24:21;;;;;;;;;2.00;2.00;;;;;;;;5247754;28;8815;-69
2022/04/22 06:26:52;;;;;;;;;2.00;2.00;;;;;;;;5231229;28;8770;-68
2022/04/22 06:29:24;;;;;;;;;4.00;4.00;;;;;;;;5193290;28;8833;-69
2022/04/22 06:31:55;;;;;;;;;10.80;10.80;;;;;;;;5225975;28;8786;-69
2022/04/22 06:34:26;;;;;;;;;6.20;5.20;;;;;;;;5227384;28;8789;-69
2022/04/22 06:36:57;;;;;;;;;10.00;10.00;;;;;;;;5209717;28;8875;-69
2022/04/22 06:48:30;;;;;;;;;4.60;4.40;;;;;;;;5209727;28;9493;-68
2022/04/22 06:51:02;;;;;;;;;9.00;9.00;;;;;;;;5227177;28;8839;-69
2022/04/22 06:53:34;;;;;;;;;15.00;14.00;;;;;;;;5226914;28;8802;-68
2022/04/22 06:56:08;;;;;;;;;4.60;4.60;;;;;;;;5226026;28;8797;-68
2022/04/22 06:58:40;;;;;;;;;5.00;5.00;;;;;;;;5209071;28;9464;-68
2022/04/22 07:01:11;;;;;;;;;2.00;2.00;;;;;;;;5225631;28;8765;-68
2022/04/22 07:03:42;;;;;;;;;5.20;4.40;;;;;;;;5226675;28;8778;-68
2022/04/22 07:06:13;;;;;;;;;3.00;3.00;;;;;;;;5226685;28;8788;-68
2022/04/22 07:08:46;;;;;;;;;4.00;4.00;;;;;;;;5209475;28;8774;-68
2022/04/22 07:11:28;;;;;;;;;3.40;3.40;;;;;;;;5226681;28;8778;-68
2022/04/22 07:13:59;;;;;;;;;6.00;6.00;;;;;;;;5258972;28;8887;-68
2022/04/22 07:16:30;;;;;;;;;2.20;2.20;;;;;;;;5226444;28;9362;-68
2022/04/22 07:19:01;;;;;;;;;8.20;8.20;;;;;;;;5226444;28;8777;-67
2022/04/22 07:21:32;;;;;;;;;4.00;4.00;;;;;;;;5226395;28;8964;-68
2022/04/22 07:24:22;;;;;;;;;22.40;21.80;;;;;;;;5228739;28;8818;-68
2022/04/22 07:26:54;;;;;;;;;4.00;4.00;;;;;;;;5226018;28;8801;-68
2022/04/22 07:29:27;;;;;;;;;3.00;3.00;;;;;;;;5225288;28;8782;-68
2022/04/22 07:31:58;;;;;;;;;3.00;3.00;;;;;;;;5208585;28;8830;-67
2022/04/22 07:34:47;;;;;;;;;3.00;3.00;;;;;;;;5225127;28;8855;-69
2022/04/22 07:37:36;;;;;;;;;3.00;3.00;;;;;;;;5226673;28;8805;-68
2022/04/22 07:40:08;;;;;;;;;6.20;5.60;;;;;;;;5224753;28;8821;-67
2022/04/22 07:42:41;;;;;;;;;6.80;6.80;;;;;;;;5225702;28;8821;-68
2022/04/22 07:48:02;;;;;;;;;7.00;7.00;;;;;;;;5225227;28;8921;-67
2022/04/22 07:50:33;;;;;;;;;7.40;5.60;;;;;;;;5225997;28;8806;-67
2022/04/22 07:53:05;;;;;;;;;4.20;3.80;;;;;;;;5226274;28;8801;-67
2022/04/22 07:55:37;;;;;;;;;23.60;22.20;;;;;;;;5224550;28;8781;-68
2022/04/22 07:58:10;;;;;;;;;17.40;17.40;;;;;;;;5225717;28;8850;-67
2022/04/22 08:00:41;;;;;;;;;12.80;11.80;;;;;;;;5225882;28;9663;-68
2022/04/22 08:03:31;;;;;;;;;4.80;4.20;;;;;;;;5224979;28;8805;-68
2022/04/22 08:06:02;;;;;;;;;4.80;4.80;;;;;;;;5224338;28;8797;-68
2022/04/22 08:08:52;;;;;;;;;2.40;2.40;;;;;;;;5224608;28;8801;-68
2022/04/22 08:11:23;;;;;;;;;1.00;1.00;;;;;;;;5236495;28;9521;-69
2022/04/22 08:13:55;;;;;;;;;5.00;5.00;;;;;;;;5246165;28;9861;-68
2022/04/22 08:16:26;;;;;;;;;6.00;5.40;;;;;;;;5224611;28;8875;-68
2022/04/22 08:18:57;;;;;;;;;5.20;5.20;;;;;;;;5225095;28;8817;-69
2022/04/22 08:21:33;;;;;;;;;5.50;5.50;;;;;;;;5225541;28;8806;-69
2022/04/22 08:24:04;;;;;;;;;8.20;8.20;;;;;;;;5222246;28;12298;-68
2022/04/22 08:26:35;;;;;;;;;12.60;12.60;;;;;;;;5225339;28;8791;-69
2022/04/22 08:29:06;;;;;;;;;8.25;8.25;;;;;;;;5238555;28;8799;-68
2022/04/22 08:31:37;;;;;;;;;6.25;6.25;;;;;;;;5232264;28;8864;-68
2022/04/22 08:34:08;;;;;;;;;7.40;7.00;;;;;;;;5241781;28;8833;-68
2022/04/22 08:36:39;;;;;;;;;6.80;6.40;;;;;;;;5227196;28;8801;-68
2022/04/22 08:39:10;;;;;;;;;12.80;12.00;;;;;;;;5230274;28;8797;-68
2022/04/22 08:41:41;;;;;;;;;5.00;5.00;;;;;;;;5245616;28;8780;-69
2022/04/22 08:44:13;;;;;;;;;8.00;6.40;;;;;;;;5244723;28;9400;-69
2022/04/22 08:50:12;;;;;;;;;7.20;6.80;;;;;;;;5246186;28;8779;-69
2022/04/22 08:52:49;;;;;;;;;8.80;8.80;;;;;;;;5246391;28;8799;-68
2022/04/22 08:55:23;;;;;;;;;7.60;7.60;;;;;;;;5245052;28;8770;-68
2022/04/22 08:57:54;;;;;;;;;9.20;9.20;;;;;;;;5228040;28;8767;-69
2022/04/22 09:00:27;;;;;;;;;9.00;9.00;;;;;;;;5223469;28;8816;-68
2022/04/22 09:02:58;;;;;;;;;12.20;12.20;;;;;;;;5224803;28;8774;-68
2022/04/22 09:05:34;;;;;;;;;14.20;13.40;;;;;;;;5223521;28;8814;-69
2022/04/22 09:08:06;;;;;;;;;7.60;7.60;;;;;;;;5223843;28;8786;-69
2022/04/22 09:10:38;;;;;;;;;11.00;11.00;;;;;;;;5206994;28;8786;-68
2022/04/22 09:13:22;;;;;;;;;4.00;4.00;;;;;;;;5206199;28;8862;-69
2022/04/22 09:15:54;;;;;;;;;7.00;7.00;;;;;;;;5242932;28;8814;-68
2022/04/22 09:18:29;;;;;;;;;5.00;5.00;;;;;;;;5240997;28;8790;-69
2022/04/22 09:21:06;;;;;;;;;10.40;10.00;;;;;;;;5225110;28;8810;-68
2022/04/22 09:23:38;;;;;;;;;3.60;3.60;;;;;;;;5235208;28;8825;-68
2022/04/22 09:26:25;;;;;;;;;8.40;8.40;;;;;;;;5210905;28;8837;-68
2022/04/22 09:28:59;;;;;;;;;11.00;11.00;;;;;;;;5227877;28;8793;-68
2022/04/22 09:31:49;;;;;;;;;11.00;11.00;;;;;;;;5227627;28;8778;-68
2022/04/22 09:34:37;;;;;;;;;12.00;11.80;;;;;;;;5229043;28;9651;-68
2022/04/22 09:43:21;;;;;;;;;14.00;14.00;;;;;;;;5184013;28;8805;-69
2022/04/22 09:45:53;;;;;;;;;17.00;17.00;;;;;;;;5226983;28;8800;-68
2022/04/22 09:48:46;;;;;;;;;12.00;11.00;;;;;;;;5229198;28;8801;-68
2022/04/22 09:51:26;;;;;;;;;14.40;14.40;;;;;;;;5210734;28;8867;-68
2022/04/22 09:54:00;;;;;;;;;12.80;12.60;;;;;;;;5210406;28;8848;-68
2022/04/22 09:56:34;;;;;;;;;10.00;10.00;;;;;;;;5227794;28;8800;-69
2022/04/22 09:59:21;;;;;;;;;13.60;10.20;;;;;;;;5228210;28;8999;-68
2022/04/22 10:02:14;;;;;;;;;22.80;21.80;;;;;;;;5226466;28;8792;-69
2022/04/22 10:04:45;;;;;;;;;20.20;19.00;;;;;;;;5228022;28;9540;-69
2022/04/22 10:07:17;;;;;;;;;10.50;10.50;;;;;;;;5227674;28;8791;-69
2022/04/22 10:09:49;;;;;;;;;14.00;14.00;;;;;;;;5226812;28;8783;-69
2022/04/22 10:12:39;;;;;;;;;0.00;0.00;;;;;;;;5227941;28;8839;-70
2022/04/22 10:15:10;;;;;;;;;20.00;20.00;;;;;;;;5226695;28;8787;-70
2022/04/22 10:17:43;;;;;;;;;13.60;13.60;;;;;;;;5208095;28;9585;-70
2022/04/22 10:20:15;;;;;;;;;12.20;12.20;;;;;;;;5205876;28;8804;-70
2022/04/22 10:22:49;;;;;;;;;29.00;28.20;;;;;;;;5235904;28;8907;-69
2022/04/22 10:25:20;;;;;;;;;14.20;13.80;;;;;;;;5247330;28;8791;-69
2022/04/22 10:27:52;;;;;;;;;14.40;14.40;;;;;;;;5248024;28;8783;-69
2022/04/22 10:30:24;;;;;;;;;11.40;11.40;;;;;;;;5230618;28;8919;-70
2022/04/22 10:33:13;;;;;;;;;14.80;14.80;;;;;;;;5229351;28;8826;-69
2022/04/22 10:35:45;;;;;;;;;13.00;12.50;;;;;;;;5227216;28;8785;-68
2022/04/22 10:38:34;;;;;;;;;7.00;7.00;;;;;;;;5226921;28;11815;-70
2022/04/22 10:41:16;;;;;;;;;4.00;3.00;;;;;;;;5227602;28;8786;-70
2022/04/22 10:49:42;;;;;;;;;13.00;13.00;;;;;;;;5226600;28;8792;-69
2022/04/22 10:52:14;;;;;;;;;24.00;23.20;;;;;;;;5225646;28;8880;-69
2022/04/22 10:54:55;;;;;;;;;19.40;17.60;;;;;;;;5209098;28;8801;-69
2022/04/22 10:57:32;;;;;;;;;14.60;13.80;;;;;;;;5208787;28;9533;-72
2022/04/22 11:00:27;;;;;;;;;9.40;9.40;;;;;;;;5225329;28;8821;-68
2022/04/22 11:03:00;;;;;;;;;9.00;9.00;;;;;;;;5226643;28;8782;-69
2022/04/22 11:05:31;;;;;;;;;15.00;13.40;;;;;;;;5224993;28;8833;-68
2022/04/22 11:08:06;;;;;;;;;13.75;12.50;;;;;;;;5227009;28;8766;-69
2022/04/22 11:10:46;;;;;;;;;13.20;12.80;;;;;;;;5225371;28;11506;-68
2022/04/22 11:13:30;;;;;;;;;8.00;8.00;;;;;;;;5209427;28;8818;-68
2022/04/22 11:16:04;;;;;;;;;5.80;5.80;;;;;;;;5224896;28;8836;-69
2022/04/22 11:18:35;;;;;;;;;3.00;3.00;;;;;;;;5188017;28;8828;-68
2022/04/22 11:21:19;;;;;;;;;5.00;5.00;;;;;;;;5172371;28;8812;-68
2022/04/22 11:23:50;;;;;;;;;3.80;3.80;;;;;;;;5265320;28;8812;-69
2022/04/22 11:26:21;;;;;;;;;37.25;34.75;;;;;;;;5227286;28;8895;-68
2022/04/22 11:29:10;;;;;;;;;5.80;5.80;;;;;;;;5226227;28;8833;-69
2022/04/22 11:31:50;;;;;;;;;14.00;14.00;;;;;;;;5222420;28;8813;-70
2022/04/22 11:34:33;;;;;;;;;14.60;12.60;;;;;;;;5222857;28;11039;-68
2022/04/22 11:37:15;;;;;;;;;5.00;5.00;;;;;;;;5223059;28;9548;-68
2022/04/22 11:39:49;;;;;;;;;5.20;5.20;;;;;;;;5222665;28;8790;-69
2022/04/22 11:42:20;;;;;;;;;3.80;3.80;;;;;;;;5189882;28;8805;-69
2022/04/22 11:45:00;;;;;;;;;7.20;6.80;;;;;;;;5219205;28;8836;-66
2022/04/22 11:47:31;;;;;;;;;8.80;8.80;;;;;;;;5169212;28;8803;-68
2022/04/22 11:50:03;;;;;;;;;2.75;2.75;;;;;;;;5202471;28;8881;-69
2022/04/22 11:52:34;;;;;;;;;5.40;5.20;;;;;;;;5238829;28;11032;-67
2022/04/22 11:55:06;;;;;;;;;5.40;5.40;;;;;;;;5220072;28;8795;-67
2022/04/22 11:57:55;;;;;;;;;6.20;6.20;;;;;;;;5222517;28;8801;-68
2022/04/22 12:06:05;;;;;;;;;6.20;6.20;;;;;;;;5205747;28;8774;-69
2022/04/22 12:08:36;;;;;;;;;10.00;10.00;;;;;;;;5206013;28;8812;-70
2022/04/22 12:11:16;;;;;;;;;6.00;6.00;;;;;;;;5221542;28;11551;-68
2022/04/22 12:13:50;;;;;;;;;7.80;7.80;;;;;;;;5208960;28;11526;-67
2022/04/22 12:16:26;;;;;;;;;6.00;6.00;;;;;;;;5205749;28;9626;-69
2022/04/22 12:18:58;;;;;;;;;5.00;5.00;;;;;;;;5239154;28;8801;-68
2022/04/22 12:21:31;;;;;;;;;5.00;5.00;;;;;;;;5223842;28;8837;-67
2022/04/22 12:24:02;;;;;;;;;3.00;3.00;;;;;;;;5206865;28;9776;-67
2022/04/22 12:26:36;;;;;;;;;3.80;3.80;;;;;;;;5228619;28;8896;-68
2022/04/22 12:29:23;;;;;;;;;4.80;4.80;;;;;;;;5244777;28;8880;-67
2022/04/22 12:31:54;;;;;;;;;7.80;7.80;;;;;;;;5232964;28;8809;-67
2022/04/22 12:34:30;;;;;;;;;2.40;2.40;;;;;;;;5224391;28;9527;-67
2022/04/22 12:37:06;;;;;;;;;3.80;3.80;;;;;;;;5207245;28;8785;-67
2022/04/22 12:39:39;;;;;;;;;5.60;5.40;;;;;;;;5225635;28;8802;-67
2022/04/22 12:42:16;;;;;;;;;12.60;12.60;;;;;;;;5207605;28;8786;-67
2022/04/22 12:53:41;;;;;;;;;5.80;5.80;;;;;;;;5224747;28;9005;-67
2022/04/22 12:56:12;;;;;;;;;1.00;1.00;;;;;;;;5227523;28;8793;-66
2022/04/22 12:58:51;;;;;;;;;2.00;2.00;;;;;;;;5229655;28;8894;-67
2022/04/22 13:01:27;;;;;;;;;2.00;2.00;;;;;;;;5228380;28;8806;-68
2022/04/22 13:03:58;;;;;;;;;0.40;0.40;;;;;;;;5228227;28;8797;-65
2022/04/22 13:06:42;;;;;;;;;2.80;2.80;;;;;;;;5227823;28;8777;-66
2022/04/22 13:09:14;;;;;;;;;3.00;3.00;;;;;;;;5194741;28;8811;-66
2022/04/22 13:12:04;;;;;;;;;2.80;2.80;;;;;;;;5228703;28;8818;-66
2022/04/22 13:14:35;;;;;;;;;1.80;1.80;;;;;;;;5227537;28;9532;-67
2022/04/22 13:17:05;;;;;;;;;1.00;1.00;;;;;;;;5227823;28;8803;-65
2022/04/22 13:19:36;;;;;;;;;19.00;19.00;;;;;;;;5228046;28;8886;-66
2022/04/22 13:22:07;;;;;;;;;6.50;6.50;;;;;;;;5227435;28;10789;-67
2022/04/22 13:24:40;;;;;;;;;6.25;6.25;;;;;;;;5227409;28;8778;-66
2022/04/22 13:27:29;;;;;;;;;3.40;3.40;;;;;;;;5240925;28;8775;-67
2022/04/22 13:30:00;;;;;;;;;6.60;6.60;;;;;;;;5248094;28;8779;-67
2022/04/22 13:32:31;;;;;;;;;9.25;9.00;;;;;;;;5227689;28;8793;-68
2022/04/22 13:35:04;;;;;;;;;10.25;10.25;;;;;;;;5228235;28;8793;-67
2022/04/22 13:37:36;;;;;;;;;5.20;5.20;;;;;;;;5227136;28;11428;-68
2022/04/22 13:40:26;;;;;;;;;5.40;5.40;;;;;;;;5228780;28;8774;-66
2022/04/22 13:42:57;;;;;;;;;4.00;4.00;;;;;;;;5227311;28;8850;-67
2022/04/22 13:53:56;;;;;;;;;13.60;13.60;;;;;;;;5225898;28;8830;-67
2022/04/22 13:56:27;;;;;;;;;10.50;10.50;;;;;;;;5226303;28;9492;-67
2022/04/22 13:58:58;;;;;;;;;4.00;4.00;;;;;;;;5209040;28;8793;-67
2022/04/22 14:01:29;;;;;;;;;4.40;4.40;;;;;;;;5226689;28;8797;-66
2022/04/22 14:04:00;;;;;;;;;3.60;3.60;;;;;;;;5225981;28;9841;-67
2022/04/22 14:06:31;;;;;;;;;3.00;3.00;;;;;;;;5225210;28;8789;-66
2022/04/22 14:09:02;;;;;;;;;13.75;13.50;;;;;;;;5208611;28;8859;-69
2022/04/22 14:11:33;;;;;;;;;10.00;8.20;;;;;;;;5224790;28;11586;-66
2022/04/22 14:14:03;;;;;;;;;11.00;11.00;;;;;;;;5226216;28;8806;-67
2022/04/22 14:16:34;;;;;;;;;13.75;13.75;;;;;;;;5224515;28;8825;-67
2022/04/22 14:19:05;;;;;;;;;14.67;14.33;;;;;;;;5227198;28;12242;-67
2022/04/22 14:21:36;;;;;;;;;17.00;17.00;;;;;;;;5226819;28;11007;-66
2022/04/22 14:24:26;;;;;;;;;20.20;19.60;;;;;;;;5221654;28;8825;-67
2022/04/22 14:27:16;;;;;;;;;23.60;22.20;;;;;;;;5191071;28;8811;-66
2022/04/22 14:29:47;;;;;;;;;21.50;20.75;;;;;;;;5209962;28;9520;-68
2022/04/22 14:32:19;;;;;;;;;20.00;20.00;;;;;;;;5243825;28;8839;-67
2022/04/22 14:34:50;;;;;;;;;25.20;25.00;;;;;;;;5235151;28;8842;-67
2022/04/22 14:37:40;;;;;;;;;23.75;23.75;;;;;;;;5234735;28;8825;-65
2022/04/22 14:40:11;;;;;;;;;17.40;17.40;;;;;;;;5258173;28;8826;-65
2022/04/22 14:42:42;;;;;;;;;23.00;22.40;;;;;;;;5260767;28;8811;-64
2022/04/22 14:45:13;;;;;;;;;28.00;27.00;;;;;;;;5263523;28;8803;-65
2022/04/22 14:48:02;;;;;;;;;47.80;39.80;;;;;;;;5257646;28;11532;-65
2022/04/22 14:50:33;;;;;;;;;28.20;28.20;;;;;;;;5228057;28;8900;-65
2022/04/22 14:53:05;;;;;;;;;29.60;28.60;;;;;;;;5209649;28;8826;-65
2022/04/22 14:55:54;;;;;;;;;29.60;28.80;;;;;;;;5226276;28;8785;-65
2022/04/22 14:58:26;;;;;;;;;41.75;34.75;;;;;;;;5226870;28;8800;-66
2022/04/22 15:00:57;;;;;;;;;40.20;36.20;;;;;;;;5242258;28;8785;-65
2022/04/22 15:03:28;;;;;;;;;38.20;34.60;;;;;;;;5225578;28;8858;-66
2022/04/22 15:05:58;;;;;;;;;46.25;38.50;;;;;;;;5226819;28;8793;-66
2022/04/22 15:08:29;;;;;;;;;46.50;40.00;;;;;;;;5208746;28;8824;-66
2022/04/22 15:11:00;;;;;;;;;36.00;32.60;;;;;;;;5208744;28;8805;-66
2022/04/22 15:13:33;;;;;;;;;47.00;40.25;;;;;;;;5208703;28;8935;-67
2022/04/22 15:16:04;;;;;;;;;48.60;41.60;;;;;;;;5209010;28;11475;-67
2022/04/22 15:24:16;;;;;;;;;52.80;44.20;;;;;;;;5204830;28;8808;-66
2022/04/22 15:26:48;;;;;;;;;57.40;48.40;;;;;;;;5188802;28;8930;-67
2022/04/22 15:29:20;;;;;;;;;55.00;46.80;;;;;;;;5218831;28;8796;-67
2022/04/22 15:31:51;;;;;;;;;50.00;41.20;;;;;;;;5240662;28;8880;-67
2022/04/22 15:34:22;;;;;;;;;56.75;46.25;;;;;;;;5246582;28;8811;-67
2022/04/22 15:36:52;;;;;;;;;62.75;52.00;;;;;;;;5246154;28;8791;-65
2022/04/22 15:39:23;;;;;;;;;55.20;47.40;;;;;;;;5246958;28;8772;-66
2022/04/22 15:41:54;;;;;;;;;58.80;48.40;;;;;;;;5246578;28;8787;-66
2022/04/22 15:44:31;;;;;;;;;54.50;45.00;;;;;;;;5229042;28;8924;-67
2022/04/22 15:47:02;;;;;;;;;58.80;49.00;;;;;;;;5226709;28;9893;-66
2022/04/22 15:49:52;;;;;;;;;61.20;50.40;;;;;;;;5224648;28;8790;-65
2022/04/22 15:52:25;;;;;;;;;56.50;47.75;;;;;;;;5208159;28;8821;-66
2022/04/22 15:54:56;;;;;;;;;62.60;52.20;;;;;;;;5224560;28;8786;-66
2022/04/22 15:57:27;;;;;;;;;70.00;55.00;;;;;;;;5208540;28;8785;-66
2022/04/22 15:59:58;;;;;;;;;72.00;57.00;;;;;;;;5207920;28;8782;-66
2022/04/22 16:02:29;;;;;;;;;79.25;61.00;;;;;;;;5225647;28;8774;-66
2022/04/22 16:05:00;;;;;;;;;81.25;62.00;;;;;;;;5203207;28;11578;-67
2022/04/22 16:07:31;;;;;;;;;78.25;63.50;;;;;;;;5203501;28;9519;-66
2022/04/22 16:10:02;;;;;;;;;85.80;74.40;;;;;;;;5222466;28;8774;-67
2022/04/22 16:15:23;;;;;;;;;75.80;60.00;;;;;;;;5224343;28;8812;-64
2022/04/22 16:17:54;;;;;;;;;73.20;59.00;;;;;;;;5206819;28;8794;-69
2022/04/22 16:20:26;;;;;;;;;73.20;59.20;;;;;;;;5223966;28;8781;-64
2022/04/22 16:22:57;;;;;;;;;75.40;59.20;;;;;;;;5241793;28;8869;-65
2022/04/22 16:25:27;;;;;;;;;72.75;59.00;;;;;;;;5241416;28;8782;-65
2022/04/22 16:28:00;;;;;;;;;55.25;45.00;;;;;;;;5224320;28;9610;-66
2022/04/22 16:30:31;;;;;;;;;64.40;51.00;;;;;;;;5213976;28;8811;-66
2022/04/22 16:33:02;;;;;;;;;65.60;50.80;;;;;;;;5227942;28;8815;-65
2022/04/22 16:35:36;;;;;;;;;61.75;51.00;;;;;;;;5245997;28;8797;-66
2022/04/22 16:38:07;;;;;;;;;68.60;54.00;;;;;;;;5203708;28;11556;-66
2022/04/22 16:40:40;;;;;;;;;41.75;36.50;;;;;;;;5224092;28;8776;-66
2022/04/22 16:43:12;;;;;;;;;59.80;50.40;;;;;;;;5207420;28;8805;-66
2022/04/22 16:45:43;;;;;;;;;60.20;51.00;;;;;;;;5191097;28;8818;-66
2022/04/22 16:48:14;;;;;;;;;61.50;50.75;;;;;;;;5225064;28;8774;-66